AirNav   Phillips 66 Aviation Fuel
 
 1611 users online  

M24 Dean Griffin Memorial Airport
Wiggins, Mississippi, USA

GOING TO WIGGINS?


FAA INFORMATION EFFECTIVE 21 JUNE 2018

Location

FAA Identifier: M24
Lat/Long: 30-50-34.7400N / 089-09-41.3400W
30-50.579000N / 089-09.689000W
30.8429833 / -89.1614833
(estimated)
Elevation: 273 ft. / 83 m (estimated)
Variation: 02E (1985)
From city: 1 mile W of WIGGINS, MS
Time zone: UTC -5 (UTC -6 during Standard Time)
Zip code: 39577

Airport Operations

Airport use: Open to the public
Control tower: no
ARTCC: HOUSTON CENTER
FSS: GREENWOOD FLIGHT SERVICE STATION
NOTAMs facility: GWO (NOTAM-D service available)
Attendance: 0800-1700
Wind indicator: lighted
Segmented circle: no
Lights: ACTVT MIRL RWY 17/35 - CTAF. PAPI RWY 17 & 35 OPRS CONSLY.
Beacon: white-green (lighted land airport)
Operates sunset to sunrise.

Airport Communications

CTAF/UNICOM: 122.8

Nearby radio navigation aids

VOR radial/distance  VOR name  Freq  Var
GPTr349/26.5GULFPORT VORTAC109.0002E
PCUr055/33.9PICAYUNE VOR/DME112.2005E
LBYr160/35.7EATON VORTAC110.6005E
GCVr241/38.0GREENE COUNTY VORTAC115.7005E

 
NDB name  Hdg/Dist  Freq  Var  ID
BOGALUSA094/36.235300WGVB --. ...- -...

Airport Services

Fuel available: 100LL
FUEL AVBL 24/7 WITH CREDIT CARD.
Parking: tiedowns
Airframe service: NONE
Bottled oxygen: NONE
Bulk oxygen: NONE

Runway Information

Runway 17/35

Dimensions: 3500 x 75 ft. / 1067 x 23 m
Surface: asphalt, in good condition
Weight bearing capacity: 
Single wheel: 20.0
Runway edge lights: medium intensity
Gradient: N
RUNWAY 17  RUNWAY 35
Latitude: 30-50.865667N30-50.292500N
Longitude: 089-09.729333W089-09.648833W
Elevation: 273.0 ft.244.8 ft.
Gradient: 0.6%0.8% UP
Traffic pattern: leftleft
Runway heading: 171 magnetic, 173 true351 magnetic, 353 true
Displaced threshold: 500 ft.no
Markings: basic, in good conditionbasic, in good condition
Visual slope indicator: 2-light PAPI on left2-light PAPI on left
Obstructions: 41 ft. tree, 1200 ft. from runway, 150 ft. left of centerline, 24:1 slope to clear
APPROACH SLOPE 36:1 TO THE DSPLCD THLD.
62 ft. trees, 1440 ft. from runway, 20:1 slope to clear

Airport Ownership and Management from official FAA records

Ownership: Publicly-owned
Owner: CITY OF WIGGINS-STONE CO
117 FIRST STREET
WIGGINS, MS 39577
Phone 601-928-7221
Manager: AIRPORT BOARD
P.O. BOX 219
WIGGINS, MS 39577
Phone 601-928-7221
MR. DURON HATTEN, SEC/TREAS OF ARPT BOARD.

Airport Operational Statistics

Aircraft based on the field: 10
Single engine airplanes: 9
Ultralights: 1
    
Aircraft operations: avg 35/day *
51% local general aviation
45% transient general aviation
4% military
* for 12-month period ending 10 May 2018

Instrument Procedures

There are no published instrument procedures at M24.

Some nearby airports with instrument procedures:

M13 - Poplarville-Pearl River County Airport (18 nm W)
KHBG - Hattiesburg Bobby L Chain Municipal Airport (26 nm N)
KGPT - Gulfport-Biloxi International Airport (27 nm S)
KBIX - Keesler Air Force Base (29 nm SE)
KHSA - Stennis International Airport (32 nm SW)
 
Loc | Ops | Rwys | IFR | FBO | Links
Com | Nav | Svcs | Stats | Notes

AirNav Hotels Sweepstakes
 
Area around M24 (Dean Griffin Memorial Airport)
 
Road maps at: MapQuest Bing Google
 
Aerial photo
No photo
 
Sectional chart

 
Airport distance calculator
Flying to Dean Griffin Memorial Airport? Find the distance to fly.

From to M24

Sunrise and sunset
Times for 25-Jun-2018
 Local
(UTC-5)
 Zulu
(UTC)
Morning civil twilight05:2810:28
Sunrise05:5610:56
Sunset20:0201:02
Evening civil twilight20:3001:30

Current date and time
Zulu (UTC)  25-Jun-2018 18:53:34
Local (UTC-5)  25-Jun-2018 13:53:34
 
METAR
KHBG 
26nm N 
251753Z AUTO VRB03KT 10SM FEW041 32/22 A3010 RMK AO2 SLP189 T03220222 10328 20256 58008 TSNO
KGPT 
26nm S 
251753Z VRB03KT 10SM SCT040 34/23 A3008 RMK AO2 SLP184 T03390233 10339 20283 58005
KBIX 
29nm SE 
251756Z AUTO 22009KT 10SM FEW140 34/24 M RMK AO2 SLPNO T03350243 10335 20285 $
KHSA 
32nm SW 
251750Z 27004KT 7SM SCT047 32/22 A3008
KBXA 
36nm W 
251835Z AUTO 18005KT 10SM CLR 35/20 A3007 RMK AO2 T03470198
KPIB 
38nm N 
251756Z AUTO VRB03KT 10SM CLR 32/23 A3011 RMK AO2 SLP193 T03220233 10328 20250 58010
KLUL 
38nm N 
251835Z AUTO 32004KT 10SM CLR 32/21 A3009 RMK AO2 T03220211
KPQL 
40nm SE 
251753Z VRB04KT 10SM SCT042 34/23 A3009 RMK AO2 LTG DSNT E SLP190 T03390233 10350 20261 58001
K0R0 
43nm NW 
251835Z AUTO 31007KT 10SM -DZ FEW050 FEW055 34/22 A3012 RMK AO2
KASD 
47nm SW 
251753Z AUTO VRB05KT 10SM SCT050 33/20 A3008 RMK AO2 SLP184 T03330200 10339 20283 58005 TSNO
TAF
KHBG 
26nm N 
251727Z 2518/2618 VRB05KT P6SM FEW025 SCT050
KGPT 
26nm S 
251720Z 2518/2618 19005KT P6SM FEW030 FEW250 FM261400 03004KT P6SM FEW020 FEW250 FM261700 12005KT P6SM FEW025 FEW250
KBIX 
29nm SE 
251800Z 2518/2624 22006KT 9999 SCT030 QNH3004INS BECMG 2520/2521 23009KT 9999 VCTS SCT030CB QNH3002INS BECMG 2523/2524 22009KT 9999 NSW BKN030 QNH3000INS BECMG 2609/2610 23006KT 9999 SCT015 QNH3008INS BECMG 2617/2618 16006KT 9999 SKC QNH3010INS TX34/2520Z TN26/2611Z
NOTAMs
Click for the latest NOTAMs
NOTAMs are issued by the DoD/FAA and will open in a separate window not controlled by AirNav.

 

 
 

FBO, Fuel Providers, and Aircraft Ground Support

  
 Business Name 
 
 Contact 
 
 Services / Description 
 
Fuel Prices
 
Comments
  
Dean Griffin Memorial Airport 601-928-6495
no information available

If you are affiliated with Dean Griffin Memorial Airport and would like to show here your services, contact info, web link, logo, and more, click here
100LL
SS $4.85 
 Updated 13-Jun-2018
 
   write
SS=Self service
Update Fuel Prices
 

Would you like to see your business listed on this page?

 If your business provides an interesting product or service to pilots, flight crews, aircraft, or users of the Dean Griffin Memorial Airport, you should consider listing it here.  To start the listing process, click on the button below
 
Add a business
 

Other Pages about Dean Griffin Memorial Airport

Update a link
 
Copyright © AirNav, LLC. All rights reserved. Privacy Policy  Contact